sensor_id;sensor_type;location;lat;lon;timestamp;P1;durP1;ratioP1;P2;durP2;ratioP2
84388;SDS011;74589;48.846;2.382;2024-01-16T00:00:17;15.00;;;10.10;;
84388;SDS011;74589;48.846;2.382;2024-01-16T00:02:43;14.05;;;9.63;;
84388;SDS011;74589;48.846;2.382;2024-01-16T00:05:10;13.95;;;9.80;;
84388;SDS011;74589;48.846;2.382;2024-01-16T00:07:38;16.40;;;10.20;;
84388;SDS011;74589;48.846;2.382;2024-01-16T00:10:07;15.57;;;10.68;;
84388;SDS011;74589;48.846;2.382;2024-01-16T00:12:33;13.75;;;9.98;;
84388;SDS011;74589;48.846;2.382;2024-01-16T00:14:58;14.90;;;10.57;;
84388;SDS011;74589;48.846;2.382;2024-01-16T00:17:24;14.07;;;10.70;;
84388;SDS011;74589;48.846;2.382;2024-01-16T00:19:50;16.70;;;12.07;;
84388;SDS011;74589;48.846;2.382;2024-01-16T00:22:16;15.07;;;9.90;;
84388;SDS011;74589;48.846;2.382;2024-01-16T00:24:41;13.07;;;10.15;;
84388;SDS011;74589;48.846;2.382;2024-01-16T00:27:07;13.52;;;9.63;;
84388;SDS011;74589;48.846;2.382;2024-01-16T00:29:33;11.98;;;9.63;;
84388;SDS011;74589;48.846;2.382;2024-01-16T00:31:58;13.35;;;9.52;;
84388;SDS011;74589;48.846;2.382;2024-01-16T00:34:24;13.15;;;9.88;;
84388;SDS011;74589;48.846;2.382;2024-01-16T00:36:50;14.68;;;8.98;;
84388;SDS011;74589;48.846;2.382;2024-01-16T00:39:16;14.50;;;9.48;;
84388;SDS011;74589;48.846;2.382;2024-01-16T00:41:41;15.27;;;10.80;;
84388;SDS011;74589;48.846;2.382;2024-01-16T00:44:07;14.73;;;10.75;;
84388;SDS011;74589;48.846;2.382;2024-01-16T00:46:33;13.93;;;10.30;;
84388;SDS011;74589;48.846;2.382;2024-01-16T00:48:58;12.88;;;9.95;;
84388;SDS011;74589;48.846;2.382;2024-01-16T00:51:24;14.27;;;9.85;;
84388;SDS011;74589;48.846;2.382;2024-01-16T00:53:50;15.32;;;9.73;;
84388;SDS011;74589;48.846;2.382;2024-01-16T00:56:16;14.07;;;10.02;;
84388;SDS011;74589;48.846;2.382;2024-01-16T00:58:42;13.35;;;9.88;;
84388;SDS011;74589;48.846;2.382;2024-01-16T01:01:07;12.77;;;8.80;;
84388;SDS011;74589;48.846;2.382;2024-01-16T01:03:33;14.05;;;9.43;;
84388;SDS011;74589;48.846;2.382;2024-01-16T01:05:59;16.83;;;9.70;;
84388;SDS011;74589;48.846;2.382;2024-01-16T01:08:25;14.95;;;10.68;;
84388;SDS011;74589;48.846;2.382;2024-01-16T01:10:51;14.48;;;11.15;;
84388;SDS011;74589;48.846;2.382;2024-01-16T01:13:17;15.70;;;11.80;;
84388;SDS011;74589;48.846;2.382;2024-01-16T01:15:42;16.17;;;11.43;;
84388;SDS011;74589;48.846;2.382;2024-01-16T01:18:08;16.80;;;11.15;;
84388;SDS011;74589;48.846;2.382;2024-01-16T01:20:34;16.05;;;11.00;;
84388;SDS011;74589;48.846;2.382;2024-01-16T01:22:59;15.07;;;11.20;;
84388;SDS011;74589;48.846;2.382;2024-01-16T01:25:25;14.40;;;11.05;;
84388;SDS011;74589;48.846;2.382;2024-01-16T01:27:51;15.82;;;10.45;;
84388;SDS011;74589;48.846;2.382;2024-01-16T01:30:17;45.53;;;28.85;;
84388;SDS011;74589;48.846;2.382;2024-01-16T01:32:43;24.55;;;16.75;;
84388;SDS011;74589;48.846;2.382;2024-01-16T01:35:09;29.02;;;19.95;;
84388;SDS011;74589;48.846;2.382;2024-01-16T01:37:36;26.40;;;17.08;;
84388;SDS011;74589;48.846;2.382;2024-01-16T01:40:02;18.52;;;13.25;;
84388;SDS011;74589;48.846;2.382;2024-01-16T01:42:28;19.33;;;13.88;;
84388;SDS011;74589;48.846;2.382;2024-01-16T01:44:54;19.05;;;14.38;;
84388;SDS011;74589;48.846;2.382;2024-01-16T01:47:20;18.67;;;14.13;;
84388;SDS011;74589;48.846;2.382;2024-01-16T01:49:46;18.45;;;14.70;;
84388;SDS011;74589;48.846;2.382;2024-01-16T01:52:11;23.23;;;15.65;;
84388;SDS011;74589;48.846;2.382;2024-01-16T01:54:37;23.63;;;15.13;;
84388;SDS011;74589;48.846;2.382;2024-01-16T01:57:04;20.83;;;16.35;;
84388;SDS011;74589;48.846;2.382;2024-01-16T01:59:32;22.17;;;15.77;;
84388;SDS011;74589;48.846;2.382;2024-01-16T02:01:58;21.48;;;16.67;;
84388;SDS011;74589;48.846;2.382;2024-01-16T02:04:24;22.25;;;16.83;;
84388;SDS011;74589;48.846;2.382;2024-01-16T02:06:51;21.73;;;16.38;;
84388;SDS011;74589;48.846;2.382;2024-01-16T02:09:17;18.85;;;15.80;;
84388;SDS011;74589;48.846;2.382;2024-01-16T02:11:42;19.70;;;15.85;;
84388;SDS011;74589;48.846;2.382;2024-01-16T02:14:09;19.67;;;15.90;;
84388;SDS011;74589;48.846;2.382;2024-01-16T02:16:36;18.63;;;14.52;;
84388;SDS011;74589;48.846;2.382;2024-01-16T02:19:06;17.45;;;14.57;;
84388;SDS011;74589;48.846;2.382;2024-01-16T02:21:50;22.27;;;15.18;;
84388;SDS011;74589;48.846;2.382;2024-01-16T02:24:18;20.48;;;15.93;;
84388;SDS011;74589;48.846;2.382;2024-01-16T02:26:44;22.17;;;16.52;;
84388;SDS011;74589;48.846;2.382;2024-01-16T02:29:10;21.90;;;16.42;;
84388;SDS011;74589;48.846;2.382;2024-01-16T02:31:36;20.92;;;16.63;;
84388;SDS011;74589;48.846;2.382;2024-01-16T02:34:02;23.23;;;17.05;;
84388;SDS011;74589;48.846;2.382;2024-01-16T02:36:29;21.80;;;17.05;;
84388;SDS011;74589;48.846;2.382;2024-01-16T02:38:55;22.15;;;17.65;;
84388;SDS011;74589;48.846;2.382;2024-01-16T02:41:21;24.58;;;17.83;;
84388;SDS011;74589;48.846;2.382;2024-01-16T02:43:47;23.73;;;17.65;;
84388;SDS011;74589;48.846;2.382;2024-01-16T02:46:16;25.05;;;18.67;;
84388;SDS011;74589;48.846;2.382;2024-01-16T02:48:42;25.25;;;18.77;;
84388;SDS011;74589;48.846;2.382;2024-01-16T02:51:08;25.67;;;18.13;;
84388;SDS011;74589;48.846;2.382;2024-01-16T02:53:34;24.08;;;19.15;;
84388;SDS011;74589;48.846;2.382;2024-01-16T02:56:00;25.27;;;18.98;;
84388;SDS011;74589;48.846;2.382;2024-01-16T02:58:28;25.45;;;18.98;;
84388;SDS011;74589;48.846;2.382;2024-01-16T03:00:55;25.85;;;19.02;;
84388;SDS011;74589;48.846;2.382;2024-01-16T03:03:22;25.63;;;18.20;;
84388;SDS011;74589;48.846;2.382;2024-01-16T03:05:48;24.63;;;18.73;;
84388;SDS011;74589;48.846;2.382;2024-01-16T03:08:14;26.48;;;18.80;;
84388;SDS011;74589;48.846;2.382;2024-01-16T03:10:39;25.50;;;18.25;;
84388;SDS011;74589;48.846;2.382;2024-01-16T03:13:06;28.00;;;19.88;;
84388;SDS011;74589;48.846;2.382;2024-01-16T03:15:32;25.08;;;19.10;;
84388;SDS011;74589;48.846;2.382;2024-01-16T03:17:58;26.98;;;20.05;;
84388;SDS011;74589;48.846;2.382;2024-01-16T03:20:24;24.42;;;20.83;;
84388;SDS011;74589;48.846;2.382;2024-01-16T03:22:49;28.77;;;21.42;;
84388;SDS011;74589;48.846;2.382;2024-01-16T03:25:18;28.25;;;22.40;;
84388;SDS011;74589;48.846;2.382;2024-01-16T03:27:44;26.95;;;21.85;;
84388;SDS011;74589;48.846;2.382;2024-01-16T03:30:10;30.33;;;23.17;;
84388;SDS011;74589;48.846;2.382;2024-01-16T03:32:36;31.77;;;24.20;;
84388;SDS011;74589;48.846;2.382;2024-01-16T03:35:02;32.58;;;23.55;;
84388;SDS011;74589;48.846;2.382;2024-01-16T03:37:28;27.83;;;23.50;;
84388;SDS011;74589;48.846;2.382;2024-01-16T03:39:54;30.23;;;24.33;;
84388;SDS011;74589;48.846;2.382;2024-01-16T03:42:20;32.42;;;24.63;;
84388;SDS011;74589;48.846;2.382;2024-01-16T03:44:46;30.25;;;24.25;;
84388;SDS011;74589;48.846;2.382;2024-01-16T03:47:12;34.20;;;24.95;;
84388;SDS011;74589;48.846;2.382;2024-01-16T03:49:38;33.55;;;26.88;;
84388;SDS011;74589;48.846;2.382;2024-01-16T03:52:04;34.58;;;25.83;;
84388;SDS011;74589;48.846;2.382;2024-01-16T03:54:29;34.38;;;25.50;;
84388;SDS011;74589;48.846;2.382;2024-01-16T03:56:55;35.38;;;26.40;;
84388;SDS011;74589;48.846;2.382;2024-01-16T03:59:21;35.75;;;27.00;;
84388;SDS011;74589;48.846;2.382;2024-01-16T04:01:47;32.58;;;25.75;;
84388;SDS011;74589;48.846;2.382;2024-01-16T04:04:14;31.73;;;24.92;;
84388;SDS011;74589;48.846;2.382;2024-01-16T04:06:40;32.80;;;25.45;;
84388;SDS011;74589;48.846;2.382;2024-01-16T04:09:07;32.92;;;26.02;;
84388;SDS011;74589;48.846;2.382;2024-01-16T04:11:34;29.23;;;23.90;;
84388;SDS011;74589;48.846;2.382;2024-01-16T04:14:00;32.75;;;26.42;;
84388;SDS011;74589;48.846;2.382;2024-01-16T04:16:25;32.28;;;25.10;;
84388;SDS011;74589;48.846;2.382;2024-01-16T04:18:51;33.65;;;25.95;;
84388;SDS011;74589;48.846;2.382;2024-01-16T04:21:17;32.30;;;25.52;;
84388;SDS011;74589;48.846;2.382;2024-01-16T04:23:43;31.52;;;25.38;;
84388;SDS011;74589;48.846;2.382;2024-01-16T04:26:09;32.17;;;25.08;;
84388;SDS011;74589;48.846;2.382;2024-01-16T04:28:35;31.60;;;24.40;;
84388;SDS011;74589;48.846;2.382;2024-01-16T04:31:02;29.08;;;23.55;;
84388;SDS011;74589;48.846;2.382;2024-01-16T04:33:28;33.15;;;25.58;;
84388;SDS011;74589;48.846;2.382;2024-01-16T04:35:54;29.88;;;22.27;;
84388;SDS011;74589;48.846;2.382;2024-01-16T04:38:20;27.88;;;22.02;;
84388;SDS011;74589;48.846;2.382;2024-01-16T04:40:46;29.40;;;23.50;;
84388;SDS011;74589;48.846;2.382;2024-01-16T04:43:11;30.55;;;23.08;;
84388;SDS011;74589;48.846;2.382;2024-01-16T04:45:37;27.63;;;22.63;;
84388;SDS011;74589;48.846;2.382;2024-01-16T04:48:03;28.40;;;22.25;;
84388;SDS011;74589;48.846;2.382;2024-01-16T04:50:28;29.63;;;21.73;;
84388;SDS011;74589;48.846;2.382;2024-01-16T04:52:57;27.33;;;22.02;;
84388;SDS011;74589;48.846;2.382;2024-01-16T04:55:25;25.52;;;19.98;;
84388;SDS011;74589;48.846;2.382;2024-01-16T04:57:51;26.48;;;19.90;;
84388;SDS011;74589;48.846;2.382;2024-01-16T05:00:17;27.98;;;21.52;;
84388;SDS011;74589;48.846;2.382;2024-01-16T05:02:43;27.63;;;21.02;;
84388;SDS011;74589;48.846;2.382;2024-01-16T05:05:09;28.35;;;22.58;;
84388;SDS011;74589;48.846;2.382;2024-01-16T05:07:34;30.23;;;22.45;;
84388;SDS011;74589;48.846;2.382;2024-01-16T05:10:00;29.45;;;22.83;;
84388;SDS011;74589;48.846;2.382;2024-01-16T05:12:26;29.73;;;24.38;;
84388;SDS011;74589;48.846;2.382;2024-01-16T05:14:52;31.42;;;23.90;;
84388;SDS011;74589;48.846;2.382;2024-01-16T05:17:18;29.98;;;23.73;;
84388;SDS011;74589;48.846;2.382;2024-01-16T05:19:43;31.55;;;25.55;;
84388;SDS011;74589;48.846;2.382;2024-01-16T05:22:09;31.95;;;25.35;;
84388;SDS011;74589;48.846;2.382;2024-01-16T05:24:35;32.88;;;25.83;;
84388;SDS011;74589;48.846;2.382;2024-01-16T05:27:01;37.38;;;26.65;;
84388;SDS011;74589;48.846;2.382;2024-01-16T05:29:27;32.33;;;26.17;;
84388;SDS011;74589;48.846;2.382;2024-01-16T05:31:52;34.25;;;25.88;;
84388;SDS011;74589;48.846;2.382;2024-01-16T05:34:18;33.75;;;27.02;;
84388;SDS011;74589;48.846;2.382;2024-01-16T05:36:44;34.47;;;26.73;;
84388;SDS011;74589;48.846;2.382;2024-01-16T05:39:09;31.15;;;25.23;;
84388;SDS011;74589;48.846;2.382;2024-01-16T05:41:35;31.77;;;25.67;;
84388;SDS011;74589;48.846;2.382;2024-01-16T05:44:01;32.65;;;26.35;;
84388;SDS011;74589;48.846;2.382;2024-01-16T05:46:32;31.75;;;26.58;;
84388;SDS011;74589;48.846;2.382;2024-01-16T05:48:58;32.08;;;25.75;;
84388;SDS011;74589;48.846;2.382;2024-01-16T05:51:25;35.75;;;27.48;;
84388;SDS011;74589;48.846;2.382;2024-01-16T05:53:52;35.42;;;26.52;;
84388;SDS011;74589;48.846;2.382;2024-01-16T05:56:18;34.67;;;27.23;;
84388;SDS011;74589;48.846;2.382;2024-01-16T05:58:44;34.65;;;26.40;;
84388;SDS011;74589;48.846;2.382;2024-01-16T06:01:09;29.55;;;24.58;;
84388;SDS011;74589;48.846;2.382;2024-01-16T06:03:38;32.00;;;24.75;;
84388;SDS011;74589;48.846;2.382;2024-01-16T06:06:04;29.38;;;23.92;;
84388;SDS011;74589;48.846;2.382;2024-01-16T06:08:30;33.65;;;25.83;;
84388;SDS011;74589;48.846;2.382;2024-01-16T06:10:56;30.27;;;23.55;;
84388;SDS011;74589;48.846;2.382;2024-01-16T06:13:22;31.50;;;24.33;;
84388;SDS011;74589;48.846;2.382;2024-01-16T06:15:47;33.03;;;24.73;;
84388;SDS011;74589;48.846;2.382;2024-01-16T06:18:14;29.75;;;24.20;;
84388;SDS011;74589;48.846;2.382;2024-01-16T06:20:40;30.98;;;24.27;;
84388;SDS011;74589;48.846;2.382;2024-01-16T06:23:06;30.83;;;26.13;;
84388;SDS011;74589;48.846;2.382;2024-01-16T06:25:31;32.78;;;24.85;;
84388;SDS011;74589;48.846;2.382;2024-01-16T06:27:57;32.47;;;25.58;;
84388;SDS011;74589;48.846;2.382;2024-01-16T06:30:22;32.45;;;26.20;;
84388;SDS011;74589;48.846;2.382;2024-01-16T06:32:48;32.22;;;25.42;;
84388;SDS011;74589;48.846;2.382;2024-01-16T06:35:15;28.27;;;23.88;;
84388;SDS011;74589;48.846;2.382;2024-01-16T06:37:41;32.20;;;25.08;;
84388;SDS011;74589;48.846;2.382;2024-01-16T06:40:08;30.58;;;24.55;;
84388;SDS011;74589;48.846;2.382;2024-01-16T06:42:34;33.10;;;26.90;;
84388;SDS011;74589;48.846;2.382;2024-01-16T06:45:01;33.65;;;26.13;;
84388;SDS011;74589;48.846;2.382;2024-01-16T06:47:27;32.10;;;27.25;;
84388;SDS011;74589;48.846;2.382;2024-01-16T06:49:53;33.10;;;26.67;;
84388;SDS011;74589;48.846;2.382;2024-01-16T06:52:19;32.85;;;26.30;;
84388;SDS011;74589;48.846;2.382;2024-01-16T06:54:44;35.83;;;26.38;;
84388;SDS011;74589;48.846;2.382;2024-01-16T06:57:10;34.50;;;27.15;;
84388;SDS011;74589;48.846;2.382;2024-01-16T06:59:36;32.40;;;25.83;;
84388;SDS011;74589;48.846;2.382;2024-01-16T07:02:02;33.05;;;27.17;;
84388;SDS011;74589;48.846;2.382;2024-01-16T07:04:28;33.42;;;25.80;;
84388;SDS011;74589;48.846;2.382;2024-01-16T07:06:54;35.50;;;26.58;;
84388;SDS011;74589;48.846;2.382;2024-01-16T07:09:19;31.65;;;25.55;;
84388;SDS011;74589;48.846;2.382;2024-01-16T07:11:46;32.83;;;25.67;;
84388;SDS011;74589;48.846;2.382;2024-01-16T07:14:12;32.70;;;25.30;;
84388;SDS011;74589;48.846;2.382;2024-01-16T07:16:38;34.35;;;26.33;;
84388;SDS011;74589;48.846;2.382;2024-01-16T07:19:04;30.50;;;24.80;;
84388;SDS011;74589;48.846;2.382;2024-01-16T07:21:30;32.15;;;25.90;;
84388;SDS011;74589;48.846;2.382;2024-01-16T07:23:56;34.60;;;26.08;;
84388;SDS011;74589;48.846;2.382;2024-01-16T07:26:22;31.52;;;24.65;;
84388;SDS011;74589;48.846;2.382;2024-01-16T07:28:48;32.45;;;25.05;;
84388;SDS011;74589;48.846;2.382;2024-01-16T07:31:14;33.67;;;25.45;;
84388;SDS011;74589;48.846;2.382;2024-01-16T07:33:41;33.03;;;25.45;;
84388;SDS011;74589;48.846;2.382;2024-01-16T07:36:08;35.72;;;26.35;;
84388;SDS011;74589;48.846;2.382;2024-01-16T07:38:34;34.17;;;26.20;;
84388;SDS011;74589;48.846;2.382;2024-01-16T07:41:01;32.88;;;25.95;;
84388;SDS011;74589;48.846;2.382;2024-01-16T07:43:27;29.35;;;23.90;;
84388;SDS011;74589;48.846;2.382;2024-01-16T07:45:54;28.13;;;23.27;;
84388;SDS011;74589;48.846;2.382;2024-01-16T07:48:20;38.58;;;24.23;;
84388;SDS011;74589;48.846;2.382;2024-01-16T07:50:46;32.72;;;25.10;;
84388;SDS011;74589;48.846;2.382;2024-01-16T07:53:11;33.65;;;25.05;;
84388;SDS011;74589;48.846;2.382;2024-01-16T07:55:37;36.17;;;26.35;;
84388;SDS011;74589;48.846;2.382;2024-01-16T07:58:02;34.95;;;26.35;;
84388;SDS011;74589;48.846;2.382;2024-01-16T08:00:30;34.83;;;28.23;;
84388;SDS011;74589;48.846;2.382;2024-01-16T08:02:55;35.20;;;26.38;;
84388;SDS011;74589;48.846;2.382;2024-01-16T08:05:21;36.58;;;27.15;;
84388;SDS011;74589;48.846;2.382;2024-01-16T08:07:50;38.28;;;28.00;;
84388;SDS011;74589;48.846;2.382;2024-01-16T08:10:16;38.72;;;27.67;;
84388;SDS011;74589;48.846;2.382;2024-01-16T08:12:42;39.60;;;27.70;;
84388;SDS011;74589;48.846;2.382;2024-01-16T08:15:08;38.38;;;29.33;;
84388;SDS011;74589;48.846;2.382;2024-01-16T08:17:34;40.22;;;28.05;;
84388;SDS011;74589;48.846;2.382;2024-01-16T08:20:00;41.22;;;28.83;;
84388;SDS011;74589;48.846;2.382;2024-01-16T08:22:26;33.80;;;26.05;;
84388;SDS011;74589;48.846;2.382;2024-01-16T08:24:51;36.88;;;26.08;;
84388;SDS011;74589;48.846;2.382;2024-01-16T08:27:18;36.15;;;27.38;;
84388;SDS011;74589;48.846;2.382;2024-01-16T08:29:44;36.78;;;27.05;;
84388;SDS011;74589;48.846;2.382;2024-01-16T08:32:10;39.05;;;28.52;;
84388;SDS011;74589;48.846;2.382;2024-01-16T08:34:35;37.80;;;28.00;;
84388;SDS011;74589;48.846;2.382;2024-01-16T08:37:01;34.08;;;26.48;;
84388;SDS011;74589;48.846;2.382;2024-01-16T08:39:28;35.33;;;26.88;;
84388;SDS011;74589;48.846;2.382;2024-01-16T08:41:58;33.17;;;27.90;;
84388;SDS011;74589;48.846;2.382;2024-01-16T08:44:23;37.30;;;28.00;;
84388;SDS011;74589;48.846;2.382;2024-01-16T08:46:49;36.10;;;27.80;;
84388;SDS011;74589;48.846;2.382;2024-01-16T08:49:15;32.55;;;27.83;;
84388;SDS011;74589;48.846;2.382;2024-01-16T08:51:40;36.50;;;28.15;;
84388;SDS011;74589;48.846;2.382;2024-01-16T08:54:06;31.75;;;26.58;;
84388;SDS011;74589;48.846;2.382;2024-01-16T08:56:32;29.92;;;25.27;;
84388;SDS011;74589;48.846;2.382;2024-01-16T08:58:57;32.55;;;25.90;;
84388;SDS011;74589;48.846;2.382;2024-01-16T09:01:23;33.60;;;26.88;;
84388;SDS011;74589;48.846;2.382;2024-01-16T09:03:49;33.13;;;25.35;;
84388;SDS011;74589;48.846;2.382;2024-01-16T09:06:15;31.63;;;25.65;;
84388;SDS011;74589;48.846;2.382;2024-01-16T09:08:40;33.72;;;25.83;;
84388;SDS011;74589;48.846;2.382;2024-01-16T09:11:06;30.63;;;25.13;;
84388;SDS011;74589;48.846;2.382;2024-01-16T09:13:32;34.85;;;25.50;;
84388;SDS011;74589;48.846;2.382;2024-01-16T09:15:58;34.05;;;25.55;;
84388;SDS011;74589;48.846;2.382;2024-01-16T09:18:24;32.25;;;24.77;;
84388;SDS011;74589;48.846;2.382;2024-01-16T09:20:49;33.28;;;24.85;;
84388;SDS011;74589;48.846;2.382;2024-01-16T09:23:15;32.55;;;26.13;;
84388;SDS011;74589;48.846;2.382;2024-01-16T09:25:41;32.03;;;25.70;;
84388;SDS011;74589;48.846;2.382;2024-01-16T09:28:06;32.55;;;25.50;;
84388;SDS011;74589;48.846;2.382;2024-01-16T09:30:32;30.58;;;24.92;;
84388;SDS011;74589;48.846;2.382;2024-01-16T09:32:58;33.03;;;25.33;;
84388;SDS011;74589;48.846;2.382;2024-01-16T09:35:24;33.33;;;25.05;;
84388;SDS011;74589;48.846;2.382;2024-01-16T09:37:49;29.45;;;25.05;;
84388;SDS011;74589;48.846;2.382;2024-01-16T09:40:16;30.73;;;25.98;;
84388;SDS011;74589;48.846;2.382;2024-01-16T09:42:41;169.13;;;111.05;;
84388;SDS011;74589;48.846;2.382;2024-01-16T09:45:08;38.45;;;30.08;;
84388;SDS011;74589;48.846;2.382;2024-01-16T09:47:34;31.92;;;25.60;;
84388;SDS011;74589;48.846;2.382;2024-01-16T09:50:02;30.65;;;24.35;;
84388;SDS011;74589;48.846;2.382;2024-01-16T09:52:28;31.27;;;25.77;;
84388;SDS011;74589;48.846;2.382;2024-01-16T09:54:54;28.23;;;23.77;;
84388;SDS011;74589;48.846;2.382;2024-01-16T09:57:23;27.52;;;22.90;;
84388;SDS011;74589;48.846;2.382;2024-01-16T09:59:53;27.38;;;21.60;;
84388;SDS011;74589;48.846;2.382;2024-01-16T10:02:21;27.05;;;21.52;;
84388;SDS011;74589;48.846;2.382;2024-01-16T10:04:48;23.23;;;19.67;;
84388;SDS011;74589;48.846;2.382;2024-01-16T10:07:14;23.20;;;17.40;;
84388;SDS011;74589;48.846;2.382;2024-01-16T10:09:43;21.15;;;17.75;;
84388;SDS011;74589;48.846;2.382;2024-01-16T10:12:08;22.67;;;18.17;;
84388;SDS011;74589;48.846;2.382;2024-01-16T10:14:35;25.52;;;19.02;;
84388;SDS011;74589;48.846;2.382;2024-01-16T10:17:04;27.33;;;20.60;;
84388;SDS011;74589;48.846;2.382;2024-01-16T10:19:56;22.17;;;18.33;;
84388;SDS011;74589;48.846;2.382;2024-01-16T10:22:24;22.85;;;18.33;;
84388;SDS011;74589;48.846;2.382;2024-01-16T10:25:12;20.88;;;16.20;;
84388;SDS011;74589;48.846;2.382;2024-01-16T10:27:37;19.23;;;16.20;;
84388;SDS011;74589;48.846;2.382;2024-01-16T10:30:05;21.85;;;16.00;;
84388;SDS011;74589;48.846;2.382;2024-01-16T10:32:33;20.63;;;16.90;;
84388;SDS011;74589;48.846;2.382;2024-01-16T10:35:09;20.70;;;15.45;;
84388;SDS011;74589;48.846;2.382;2024-01-16T10:37:51;22.35;;;17.13;;
84388;SDS011;74589;48.846;2.382;2024-01-16T10:40:18;21.55;;;17.85;;
84388;SDS011;74589;48.846;2.382;2024-01-16T10:42:46;21.75;;;18.38;;
84388;SDS011;74589;48.846;2.382;2024-01-16T10:45:25;20.95;;;17.05;;
84388;SDS011;74589;48.846;2.382;2024-01-16T10:48:01;23.55;;;17.25;;
84388;SDS011;74589;48.846;2.382;2024-01-16T10:50:29;93.38;;;55.22;;
84388;SDS011;74589;48.846;2.382;2024-01-16T10:52:54;36.20;;;24.70;;
84388;SDS011;74589;48.846;2.382;2024-01-16T10:55:23;27.70;;;19.77;;
84388;SDS011;74589;48.846;2.382;2024-01-16T10:57:50;37.38;;;24.50;;
84388;SDS011;74589;48.846;2.382;2024-01-16T11:00:20;25.42;;;19.40;;
84388;SDS011;74589;48.846;2.382;2024-01-16T11:02:50;19.98;;;15.02;;
84388;SDS011;74589;48.846;2.382;2024-01-16T11:05:25;17.10;;;13.73;;
84388;SDS011;74589;48.846;2.382;2024-01-16T11:07:55;19.48;;;14.15;;
84388;SDS011;74589;48.846;2.382;2024-01-16T11:10:21;20.83;;;13.10;;
84388;SDS011;74589;48.846;2.382;2024-01-16T11:12:47;15.43;;;12.15;;
84388;SDS011;74589;48.846;2.382;2024-01-16T11:15:14;14.50;;;11.77;;
84388;SDS011;74589;48.846;2.382;2024-01-16T11:17:40;15.23;;;12.73;;
84388;SDS011;74589;48.846;2.382;2024-01-16T11:20:09;17.20;;;13.38;;
84388;SDS011;74589;48.846;2.382;2024-01-16T11:22:39;17.05;;;12.35;;
84388;SDS011;74589;48.846;2.382;2024-01-16T11:25:10;19.55;;;13.38;;
84388;SDS011;74589;48.846;2.382;2024-01-16T11:27:37;18.92;;;13.57;;
84388;SDS011;74589;48.846;2.382;2024-01-16T11:30:07;13.02;;;11.55;;
84388;SDS011;74589;48.846;2.382;2024-01-16T11:32:36;13.82;;;10.70;;
84388;SDS011;74589;48.846;2.382;2024-01-16T11:35:05;15.07;;;10.18;;
84388;SDS011;74589;48.846;2.382;2024-01-16T11:37:34;13.52;;;10.73;;
84388;SDS011;74589;48.846;2.382;2024-01-16T11:42:45;14.45;;;11.38;;
84388;SDS011;74589;48.846;2.382;2024-01-16T11:48:08;13.18;;;10.63;;
84388;SDS011;74589;48.846;2.382;2024-01-16T11:50:37;12.77;;;10.63;;
84388;SDS011;74589;48.846;2.382;2024-01-16T11:53:03;14.90;;;10.43;;
84388;SDS011;74589;48.846;2.382;2024-01-16T11:55:30;12.18;;;8.77;;
84388;SDS011;74589;48.846;2.382;2024-01-16T12:00:50;10.20;;;7.60;;
84388;SDS011;74589;48.846;2.382;2024-01-16T12:03:18;10.05;;;7.45;;
84388;SDS011;74589;48.846;2.382;2024-01-16T12:06:07;10.23;;;7.93;;
84388;SDS011;74589;48.846;2.382;2024-01-16T12:08:33;13.57;;;7.80;;
84388;SDS011;74589;48.846;2.382;2024-01-16T12:10:59;9.65;;;7.05;;
84388;SDS011;74589;48.846;2.382;2024-01-16T12:13:25;9.30;;;7.43;;
84388;SDS011;74589;48.846;2.382;2024-01-16T12:16:02;14.18;;;8.02;;
84388;SDS011;74589;48.846;2.382;2024-01-16T12:18:31;9.52;;;6.90;;
84388;SDS011;74589;48.846;2.382;2024-01-16T12:20:57;7.43;;;5.20;;
84388;SDS011;74589;48.846;2.382;2024-01-16T12:23:32;7.22;;;4.70;;
84388;SDS011;74589;48.846;2.382;2024-01-16T12:25:58;6.45;;;4.63;;
84388;SDS011;74589;48.846;2.382;2024-01-16T12:28:28;5.25;;;4.28;;
84388;SDS011;74589;48.846;2.382;2024-01-16T12:30:54;5.05;;;3.85;;
84388;SDS011;74589;48.846;2.382;2024-01-16T12:33:22;4.93;;;3.58;;
84388;SDS011;74589;48.846;2.382;2024-01-16T12:35:48;5.43;;;4.13;;
84388;SDS011;74589;48.846;2.382;2024-01-16T12:38:14;4.50;;;3.75;;
84388;SDS011;74589;48.846;2.382;2024-01-16T12:40:47;7.07;;;4.88;;
84388;SDS011;74589;48.846;2.382;2024-01-16T12:43:18;4.75;;;3.92;;
84388;SDS011;74589;48.846;2.382;2024-01-16T12:45:44;5.55;;;4.00;;
84388;SDS011;74589;48.846;2.382;2024-01-16T12:48:10;5.38;;;4.00;;
84388;SDS011;74589;48.846;2.382;2024-01-16T12:50:36;9.50;;;5.22;;
84388;SDS011;74589;48.846;2.382;2024-01-16T12:53:09;8.40;;;6.22;;
84388;SDS011;74589;48.846;2.382;2024-01-16T12:55:36;8.05;;;5.68;;
84388;SDS011;74589;48.846;2.382;2024-01-16T12:58:16;7.57;;;6.30;;
84388;SDS011;74589;48.846;2.382;2024-01-16T13:00:43;12.60;;;7.90;;
84388;SDS011;74589;48.846;2.382;2024-01-16T13:03:25;6.80;;;5.40;;
84388;SDS011;74589;48.846;2.382;2024-01-16T13:05:57;4.97;;;3.45;;
84388;SDS011;74589;48.846;2.382;2024-01-16T13:08:24;4.80;;;3.40;;
84388;SDS011;74589;48.846;2.382;2024-01-16T13:11:07;4.85;;;3.50;;
84388;SDS011;74589;48.846;2.382;2024-01-16T13:13:34;5.97;;;3.50;;
84388;SDS011;74589;48.846;2.382;2024-01-16T13:16:02;3.75;;;3.35;;
84388;SDS011;74589;48.846;2.382;2024-01-16T13:18:32;3.97;;;3.25;;
84388;SDS011;74589;48.846;2.382;2024-01-16T13:20:58;3.63;;;3.05;;
84388;SDS011;74589;48.846;2.382;2024-01-16T13:23:26;6.20;;;3.10;;
84388;SDS011;74589;48.846;2.382;2024-01-16T13:25:52;5.13;;;3.13;;
84388;SDS011;74589;48.846;2.382;2024-01-16T13:28:20;4.70;;;3.10;;
84388;SDS011;74589;48.846;2.382;2024-01-16T13:30:47;5.38;;;3.13;;
84388;SDS011;74589;48.846;2.382;2024-01-16T13:33:13;3.72;;;2.92;;
84388;SDS011;74589;48.846;2.382;2024-01-16T13:35:41;5.93;;;3.00;;
84388;SDS011;74589;48.846;2.382;2024-01-16T13:38:09;5.03;;;3.25;;
84388;SDS011;74589;48.846;2.382;2024-01-16T13:40:35;4.85;;;3.20;;
84388;SDS011;74589;48.846;2.382;2024-01-16T13:43:02;3.97;;;3.38;;
84388;SDS011;74589;48.846;2.382;2024-01-16T13:45:28;5.53;;;3.38;;
84388;SDS011;74589;48.846;2.382;2024-01-16T13:47:54;4.45;;;3.05;;
84388;SDS011;74589;48.846;2.382;2024-01-16T13:50:21;4.47;;;3.08;;
84388;SDS011;74589;48.846;2.382;2024-01-16T13:52:47;6.55;;;3.38;;
84388;SDS011;74589;48.846;2.382;2024-01-16T13:55:12;4.95;;;3.40;;
84388;SDS011;74589;48.846;2.382;2024-01-16T13:57:38;6.45;;;4.10;;
84388;SDS011;74589;48.846;2.382;2024-01-16T14:00:05;5.57;;;3.85;;
84388;SDS011;74589;48.846;2.382;2024-01-16T14:02:32;5.03;;;3.83;;
84388;SDS011;74589;48.846;2.382;2024-01-16T14:05:03;6.18;;;4.30;;
84388;SDS011;74589;48.846;2.382;2024-01-16T14:07:30;5.03;;;4.10;;
84388;SDS011;74589;48.846;2.382;2024-01-16T14:09:56;6.38;;;4.35;;
84388;SDS011;74589;48.846;2.382;2024-01-16T14:12:23;5.45;;;3.85;;
84388;SDS011;74589;48.846;2.382;2024-01-16T14:14:49;5.78;;;4.68;;
84388;SDS011;74589;48.846;2.382;2024-01-16T14:17:16;6.32;;;4.53;;
84388;SDS011;74589;48.846;2.382;2024-01-16T14:19:41;7.03;;;4.40;;
84388;SDS011;74589;48.846;2.382;2024-01-16T14:22:07;7.07;;;4.47;;
84388;SDS011;74589;48.846;2.382;2024-01-16T14:24:33;5.90;;;4.10;;
84388;SDS011;74589;48.846;2.382;2024-01-16T14:26:59;5.35;;;4.28;;
84388;SDS011;74589;48.846;2.382;2024-01-16T14:29:25;9.68;;;5.82;;
84388;SDS011;74589;48.846;2.382;2024-01-16T14:31:51;8.65;;;4.18;;